Time;durP1;ratioP1;P1;durP2;ratioP2;P2;SDS_P1;SDS_P2;PMS_P1;PMS_P2;Temp;Humidity;BMP_temperature;BMP_pressure;BME280_temperature;BME280_humidity;BME280_pressure;Samples;Min_cycle;Max_cycle;Signal;HPM_P1;HPM_P2
2021/07/19 00:01:53;;;;;;;0.08;0.00;;;24.90;50.00;;;;;;4915713;28;20032;-85
2021/07/19 00:04:19;;;;;;;2.15;0.05;;;24.90;50.00;;;;;;4948473;29;20043;-85
2021/07/19 00:06:45;;;;;;;0.40;0.15;;;24.90;50.00;;;;;;4917618;29;20044;-84
2021/07/19 00:09:12;;;;;;;0.00;0.00;;;24.90;50.10;;;;;;4917431;29;20043;-83
2021/07/19 00:11:38;;;;;;;0.22;0.10;;;24.90;50.10;;;;;;4913674;29;20028;-83
2021/07/19 00:14:04;;;;;;;0.30;0.10;;;24.90;50.20;;;;;;4932331;29;20484;-84
2021/07/19 00:16:31;;;;;;;2.88;0.47;;;24.90;50.30;;;;;;4917260;28;20047;-86
2021/07/19 00:18:57;;;;;;;0.00;0.00;;;24.90;50.40;;;;;;4917028;29;20075;-87
2021/07/19 00:21:23;;;;;;;0.25;0.00;;;24.80;50.50;;;;;;4932083;29;20028;-84
2021/07/19 00:23:49;;;;;;;0.28;0.17;;;24.80;50.70;;;;;;4917180;29;20028;-86
2021/07/19 00:26:15;;;;;;;0.25;0.10;;;24.70;50.70;;;;;;4947944;29;20051;-83
2021/07/19 00:28:42;;;;;;;0.90;0.13;;;24.70;50.70;;;;;;4929972;29;20052;-86
2021/07/19 00:31:08;;;;;;;2.67;0.30;;;24.60;50.80;;;;;;4916966;28;20043;-84
2021/07/19 00:33:34;;;;;;;0.17;0.10;;;24.60;50.90;;;;;;4916706;29;20368;-84
2021/07/19 00:36:00;;;;;;;0.20;0.05;;;24.60;50.90;;;;;;4947575;29;20047;-84
2021/07/19 00:38:26;;;;;;;0.05;0.00;;;24.60;51.00;;;;;;4917151;29;20498;-85
2021/07/19 00:40:52;;;;;;;0.35;0.20;;;24.60;51.00;;;;;;4931424;29;20048;-85
2021/07/19 00:43:18;;;;;;;0.00;0.00;;;24.60;51.10;;;;;;4917568;29;20024;-85
2021/07/19 00:45:44;;;;;;;0.35;0.10;;;24.60;51.20;;;;;;4916513;28;20047;-85
2021/07/19 00:48:10;;;;;;;0.68;0.10;;;24.50;51.30;;;;;;4915893;29;20043;-86
2021/07/19 00:50:37;;;;;;;0.65;0.20;;;24.40;51.40;;;;;;4913198;29;20055;-83
2021/07/19 00:53:07;;;;;;;0.43;0.10;;;24.40;51.60;;;;;;4931509;29;20044;-84
2021/07/19 00:55:41;;;;;;;0.43;0.25;;;24.30;51.70;;;;;;4915415;29;20486;-86
2021/07/19 00:58:08;;;;;;;15.10;0.30;;;24.20;51.80;;;;;;4929628;29;20024;-83
2021/07/19 01:00:40;;;;;;;0.30;0.20;;;24.10;51.90;;;;;;4943740;28;20040;-84
2021/07/19 01:03:06;;;;;;;0.10;0.00;;;24.10;52.10;;;;;;4916587;29;20629;-84
2021/07/19 01:05:32;;;;;;;0.30;0.20;;;24.10;52.20;;;;;;4928068;29;20468;-84
2021/07/19 01:07:58;;;;;;;0.17;0.10;;;24.00;52.40;;;;;;4930914;29;20051;-85
2021/07/19 01:10:24;;;;;;;1.35;0.10;;;24.00;52.40;;;;;;4947559;29;20476;-84
2021/07/19 01:12:54;;;;;;;0.57;0.15;;;23.90;52.50;;;;;;4915126;29;20036;-85
2021/07/19 01:15:24;;;;;;;0.00;0.00;;;23.80;52.60;;;;;;4930709;28;20047;-84
2021/07/19 01:17:50;;;;;;;0.13;0.00;;;23.80;52.70;;;;;;4916223;29;20036;-85
2021/07/19 01:20:17;;;;;;;0.15;0.00;;;23.80;52.80;;;;;;4915064;29;20039;-86
2021/07/19 01:23:01;;;;;;;0.75;0.15;;;23.70;52.90;;;;;;4913838;29;20384;-84
2021/07/19 01:25:53;;;;;;;0.47;0.10;;;23.70;53.00;;;;;;4916804;29;20040;-85
2021/07/19 01:28:41;;;;;;;0.43;0.22;;;23.70;53.10;;;;;;4914571;29;20032;-85
2021/07/19 01:31:11;;;;;;;0.17;0.00;;;23.70;53.30;;;;;;4946112;28;20077;-85
2021/07/19 01:33:37;;;;;;;0.00;0.00;;;23.60;53.40;;;;;;4915960;29;20032;-86
2021/07/19 01:36:04;;;;;;;0.05;0.03;;;23.50;53.30;;;;;;4930905;29;20407;-85
2021/07/19 01:38:30;;;;;;;0.75;0.30;;;23.50;53.40;;;;;;4911823;29;20032;-85
2021/07/19 01:40:56;;;;;;;0.57;0.25;;;23.50;53.50;;;;;;4930530;29;20025;-84
2021/07/19 01:43:22;;;;;;;0.80;0.20;;;23.50;53.70;;;;;;4963268;28;20495;-84
2021/07/19 01:45:48;;;;;;;0.35;0.20;;;23.50;53.70;;;;;;4961528;28;20039;-84
2021/07/19 01:48:15;;;;;;;1.67;0.65;;;23.50;53.80;;;;;;4962401;28;20036;-85
2021/07/19 01:50:41;;;;;;;0.00;0.00;;;23.40;53.80;;;;;;4928514;29;20055;-84
2021/07/19 01:53:07;;;;;;;0.00;0.00;;;23.40;53.90;;;;;;4930517;29;20411;-84
2021/07/19 01:55:34;;;;;;;0.00;0.00;;;23.40;54.00;;;;;;4927871;29;20028;-84
2021/07/19 01:58:00;;;;;;;0.73;0.13;;;23.30;54.00;;;;;;4962209;28;20476;-84
2021/07/19 02:00:26;;;;;;;0.85;0.22;;;23.30;54.00;;;;;;4945343;28;20036;-84
2021/07/19 02:02:52;;;;;;;0.35;0.10;;;23.40;54.10;;;;;;4913316;29;20044;-84
2021/07/19 02:05:19;;;;;;;0.38;0.15;;;23.40;54.10;;;;;;4940628;28;20051;-78
2021/07/19 02:07:49;;;;;;;2.17;0.20;;;23.40;54.60;;;;;;4950101;28;21214;-86
2021/07/19 02:10:16;;;;;;;1.13;0.20;;;23.30;54.20;;;;;;4948976;28;20054;-85
2021/07/19 02:12:42;;;;;;;1.90;0.10;;;23.30;54.20;;;;;;4946337;28;20031;-84
2021/07/19 02:15:14;;;;;;;0.15;0.00;;;23.30;54.30;;;;;;4945323;28;20432;-86
2021/07/19 02:17:46;;;;;;;0.43;0.10;;;23.30;54.40;;;;;;4944460;28;20028;-85
2021/07/19 02:20:12;;;;;;;2.08;0.43;;;23.30;54.40;;;;;;4960008;28;20031;-85
2021/07/19 02:22:40;;;;;;;0.10;0.05;;;23.30;54.50;;;;;;4945863;29;20036;-82
2021/07/19 02:25:07;;;;;;;0.45;0.20;;;23.20;54.60;;;;;;4929568;29;20410;-85
2021/07/19 02:27:33;;;;;;;0.03;0.00;;;23.20;54.80;;;;;;4944111;28;20036;-85
2021/07/19 02:29:59;;;;;;;4.03;0.35;;;23.10;54.90;;;;;;4959847;28;20048;-84
2021/07/19 02:32:25;;;;;;;0.85;0.20;;;23.10;55.10;;;;;;4959983;28;20028;-84
2021/07/19 02:34:51;;;;;;;0.10;0.05;;;23.00;55.20;;;;;;4944348;29;20044;-83
2021/07/19 02:37:17;;;;;;;0.68;0.38;;;23.00;55.80;;;;;;4915276;29;20535;-84
2021/07/19 02:39:43;;;;;;;0.10;0.00;;;22.90;55.40;;;;;;4961880;28;20035;-85
2021/07/19 02:42:10;;;;;;;0.00;0.00;;;22.90;55.50;;;;;;4961480;28;20036;-85
2021/07/19 02:44:36;;;;;;;0.77;0.10;;;22.90;55.70;;;;;;4946018;29;20028;-85
2021/07/19 02:47:02;;;;;;;0.20;0.00;;;22.80;55.80;;;;;;4913864;28;20412;-84
2021/07/19 02:49:28;;;;;;;0.75;0.28;;;22.80;55.90;;;;;;4915863;29;20053;-85
2021/07/19 02:51:54;;;;;;;0.20;0.20;;;22.80;55.90;;;;;;4914105;29;20391;-84
2021/07/19 02:54:21;;;;;;;6.93;0.20;;;22.80;55.90;;;;;;4929766;29;20036;-85
2021/07/19 02:56:47;;;;;;;1.92;0.20;;;22.80;55.90;;;;;;4928198;29;20045;-84
2021/07/19 02:59:14;;;;;;;0.03;0.00;;;22.80;55.90;;;;;;4929943;29;20032;-85
2021/07/19 03:01:40;;;;;;;0.05;0.00;;;22.80;56.00;;;;;;4915476;28;20048;-84
2021/07/19 03:04:06;;;;;;;0.43;0.10;;;22.80;56.00;;;;;;4962103;28;20051;-84
2021/07/19 03:06:34;;;;;;;0.22;0.00;;;22.70;56.10;;;;;;4945646;29;20388;-84
2021/07/19 03:09:01;;;;;;;0.30;0.00;;;22.70;56.20;;;;;;4929607;29;20052;-84
2021/07/19 03:11:39;;;;;;;0.08;0.00;;;22.70;56.30;;;;;;4913266;29;20024;-85
2021/07/19 03:14:08;;;;;;;0.90;0.10;;;22.60;56.40;;;;;;4933148;29;20499;-85
2021/07/19 03:16:34;;;;;;;0.30;0.20;;;22.60;56.50;;;;;;4929993;28;20041;-85
2021/07/19 03:19:02;;;;;;;1.65;0.57;;;22.60;56.60;;;;;;4965185;28;20024;-84
2021/07/19 03:21:29;;;;;;;0.30;0.10;;;22.50;56.70;;;;;;4949163;29;20036;-84
2021/07/19 03:23:56;;;;;;;1.30;0.10;;;22.50;56.80;;;;;;4918507;29;20031;-84
2021/07/19 03:26:22;;;;;;;0.08;0.08;;;22.50;56.90;;;;;;4916848;29;20483;-84
2021/07/19 03:28:49;;;;;;;0.60;0.10;;;22.50;56.90;;;;;;4916657;29;20048;-85
2021/07/19 03:31:15;;;;;;;0.32;0.03;;;22.40;57.10;;;;;;4918302;28;20048;-84
2021/07/19 03:33:43;;;;;;;0.32;0.10;;;22.30;57.20;;;;;;4917457;29;20040;-85
2021/07/19 03:36:10;;;;;;;0.00;0.00;;;22.30;57.30;;;;;;4932587;29;20028;-84
2021/07/19 03:38:37;;;;;;;0.05;0.00;;;22.20;57.50;;;;;;4914634;29;20392;-84
2021/07/19 03:41:04;;;;;;;0.63;0.15;;;22.20;57.60;;;;;;4916714;29;20036;-84
2021/07/19 03:43:31;;;;;;;0.82;0.15;;;22.20;57.70;;;;;;4918600;29;20047;-84
2021/07/19 03:45:57;;;;;;;0.35;0.10;;;22.10;57.80;;;;;;4916450;28;20411;-84
2021/07/19 03:48:23;;;;;;;0.00;0.00;;;22.10;58.00;;;;;;4932605;29;20032;-84
2021/07/19 03:50:50;;;;;;;0.35;0.00;;;22.10;58.00;;;;;;4915536;29;20408;-85
2021/07/19 03:53:16;;;;;;;0.15;0.13;;;22.10;58.10;;;;;;4932647;29;20235;-84
2021/07/19 03:55:43;;;;;;;0.80;0.45;;;22.00;58.20;;;;;;4930586;29;20025;-85
2021/07/19 03:58:11;;;;;;;0.32;0.00;;;22.00;58.40;;;;;;4964886;28;20495;-85
2021/07/19 04:00:37;;;;;;;0.17;0.03;;;22.00;58.60;;;;;;4963638;28;20047;-84
2021/07/19 04:03:26;;;;;;;0.95;0.28;;;21.90;58.60;;;;;;4918481;28;20063;-84
2021/07/19 04:06:02;;;;;;;0.50;0.20;;;21.90;58.70;;;;;;4913566;29;20047;-85
2021/07/19 04:08:31;;;;;;;0.43;0.30;;;21.90;58.70;;;;;;4916370;29;20044;-85
2021/07/19 04:10:58;;;;;;;1.05;0.20;;;21.90;58.70;;;;;;4916583;29;20276;-84
2021/07/19 04:13:25;;;;;;;0.52;0.40;;;21.90;58.80;;;;;;4918390;29;20024;-84
2021/07/19 04:15:52;;;;;;;1.13;0.45;;;21.90;59.00;;;;;;4931538;28;20043;-84
2021/07/19 04:18:19;;;;;;;0.10;0.00;;;21.90;59.00;;;;;;4932402;29;20044;-85
2021/07/19 04:20:45;;;;;;;1.20;0.70;;;21.90;59.10;;;;;;4930269;29;20046;-84
2021/07/19 04:23:11;;;;;;;0.38;0.00;;;21.80;59.20;;;;;;4916573;29;20036;-84
2021/07/19 04:25:40;;;;;;;2.25;0.43;;;21.80;59.20;;;;;;4918499;28;20480;-84
2021/07/19 04:28:06;;;;;;;0.00;0.00;;;21.80;59.20;;;;;;4963847;28;20051;-84
2021/07/19 04:30:33;;;;;;;0.55;0.20;;;21.80;59.30;;;;;;4963086;28;20036;-84
2021/07/19 04:33:00;;;;;;;1.40;0.15;;;21.80;59.40;;;;;;4947596;29;20024;-84
2021/07/19 04:35:26;;;;;;;0.10;0.00;;;21.80;59.50;;;;;;4917172;29;20032;-84
2021/07/19 04:37:55;;;;;;;0.10;0.10;;;21.80;59.50;;;;;;4917851;28;20056;-85
2021/07/19 04:40:25;;;;;;;0.00;0.00;;;21.80;59.70;;;;;;4962674;28;20044;-85
2021/07/19 04:42:51;;;;;;;0.52;0.13;;;21.80;59.80;;;;;;4917824;28;20041;-84
2021/07/19 04:45:19;;;;;;;3.08;1.00;;;21.70;59.90;;;;;;4916365;28;20036;-84
2021/07/19 04:47:49;;;;;;;0.77;0.17;;;21.70;60.10;;;;;;4916796;29;20020;-84
2021/07/19 04:50:18;;;;;;;1.35;0.55;;;21.70;60.30;;;;;;4915732;29;20067;-84
2021/07/19 04:52:45;;;;;;;1.45;0.43;;;21.60;60.40;;;;;;4916754;29;20035;-85
2021/07/19 04:55:12;;;;;;;0.00;0.00;;;21.60;60.50;;;;;;4947807;29;20043;-84
2021/07/19 04:57:39;;;;;;;3.20;0.43;;;21.60;60.50;;;;;;4931612;29;20094;-83
2021/07/19 05:00:06;;;;;;;0.95;0.30;;;21.60;60.60;;;;;;4930941;28;20047;-84
2021/07/19 05:02:32;;;;;;;0.20;0.03;;;21.60;60.70;;;;;;4916651;29;20043;-83
2021/07/19 05:04:58;;;;;;;1.75;0.52;;;21.60;60.80;;;;;;4931184;29;20518;-84
2021/07/19 05:07:25;;;;;;;0.10;0.10;;;21.70;61.00;;;;;;4947256;29;20063;-84
2021/07/19 05:09:51;;;;;;;0.30;0.10;;;21.60;60.90;;;;;;4931314;29;20036;-84
2021/07/19 05:12:20;;;;;;;1.17;0.10;;;21.70;61.10;;;;;;4931001;29;20033;-83
2021/07/19 05:14:46;;;;;;;0.22;0.00;;;21.70;61.00;;;;;;4929706;29;20036;-85
2021/07/19 05:17:13;;;;;;;0.40;0.30;;;21.80;61.00;;;;;;4930691;28;20044;-84
2021/07/19 05:19:41;;;;;;;1.95;0.20;;;21.80;60.80;;;;;;4913191;29;20028;-84
2021/07/19 05:22:13;;;;;;;0.35;0.03;;;22.00;60.70;;;;;;4946713;29;20028;-84
2021/07/19 05:24:40;;;;;;;0.63;0.20;;;22.20;60.50;;;;;;4932292;29;20495;-85
2021/07/19 05:27:07;;;;;;;0.10;0.10;;;22.30;60.20;;;;;;4946868;28;20044;-84
2021/07/19 05:29:37;;;;;;;1.35;0.20;;;22.50;60.00;;;;;;4927846;29;20044;-84
2021/07/19 05:32:03;;;;;;;0.45;0.45;;;22.70;59.90;;;;;;4930302;28;20031;-87
2021/07/19 05:34:29;;;;;;;0.17;0.00;;;22.70;59.80;;;;;;4916311;29;20289;-85
2021/07/19 05:36:56;;;;;;;0.63;0.10;;;22.90;59.60;;;;;;4914538;29;20395;-83
2021/07/19 05:39:22;;;;;;;0.40;0.20;;;23.10;59.40;;;;;;4914823;29;20028;-84
2021/07/19 05:41:48;;;;;;;0.17;0.03;;;23.30;59.20;;;;;;4916047;29;20043;-85
2021/07/19 05:44:14;;;;;;;0.00;0.00;;;23.50;59.10;;;;;;4916232;29;20031;-85
2021/07/19 05:46:40;;;;;;;0.47;0.15;;;23.60;58.80;;;;;;4912463;28;20037;-85
2021/07/19 05:49:07;;;;;;;0.73;0.30;;;23.70;58.70;;;;;;4946582;29;20024;-85
2021/07/19 05:51:33;;;;;;;0.10;0.10;;;23.80;58.70;;;;;;4929929;29;20032;-84
2021/07/19 05:54:01;;;;;;;0.20;0.00;;;23.90;58.70;;;;;;4914661;29;20040;-83
2021/07/19 05:56:33;;;;;;;0.30;0.20;;;23.90;58.70;;;;;;4930304;29;20568;-89
2021/07/19 05:59:00;;;;;;;0.00;0.00;;;23.90;58.70;;;;;;4916680;28;20056;-83
2021/07/19 06:01:26;;;;;;;3.22;0.85;;;24.00;58.80;;;;;;4946153;28;20039;-84
2021/07/19 06:03:53;;;;;;;1.00;0.47;;;24.00;58.80;;;;;;4914722;29;20039;-85
2021/07/19 06:06:19;;;;;;;0.00;0.00;;;24.10;58.60;;;;;;4915554;29;20040;-85
2021/07/19 06:08:45;;;;;;;0.25;0.15;;;24.20;58.50;;;;;;4912570;29;20044;-83
2021/07/19 06:11:11;;;;;;;0.15;0.03;;;24.30;58.40;;;;;;4914591;29;20051;-84
2021/07/19 06:13:37;;;;;;;0.57;0.20;;;24.40;58.30;;;;;;4915950;29;20028;-84
2021/07/19 06:16:03;;;;;;;0.03;0.03;;;24.40;58.20;;;;;;4946740;28;20405;-84
2021/07/19 06:18:29;;;;;;;0.32;0.20;;;24.50;58.20;;;;;;4915562;29;20032;-85
2021/07/19 06:20:55;;;;;;;0.00;0.00;;;24.50;58.10;;;;;;4915127;29;20040;-84
2021/07/19 06:23:22;;;;;;;0.10;0.00;;;24.60;58.10;;;;;;4915923;29;20033;-84
2021/07/19 06:25:50;;;;;;;0.10;0.00;;;24.70;58.00;;;;;;4915685;29;20036;-84
2021/07/19 06:28:16;;;;;;;0.35;0.10;;;24.80;57.90;;;;;;4946194;29;20379;-84
2021/07/19 06:30:42;;;;;;;0.40;0.10;;;24.80;57.80;;;;;;4913822;28;20048;-85
2021/07/19 06:33:08;;;;;;;2.17;0.30;;;24.80;58.00;;;;;;4915363;29;20503;-83
2021/07/19 06:35:35;;;;;;;0.40;0.20;;;24.90;58.00;;;;;;4910719;29;20032;-86
2021/07/19 06:38:01;;;;;;;0.17;0.10;;;24.90;57.90;;;;;;4930083;29;20032;-84
2021/07/19 06:40:27;;;;;;;0.88;0.32;;;24.90;57.80;;;;;;4946398;29;20032;-86
2021/07/19 06:42:53;;;;;;;0.10;0.10;;;25.00;57.80;;;;;;4916046;28;20048;-85
2021/07/19 06:45:19;;;;;;;0.00;0.00;;;25.00;57.80;;;;;;4916769;28;20036;-83
2021/07/19 06:47:46;;;;;;;0.00;0.00;;;25.10;57.60;;;;;;4919000;29;20036;-84
2021/07/19 06:50:12;;;;;;;0.38;0.00;;;25.30;57.50;;;;;;4918748;29;20037;-84
2021/07/19 06:52:39;;;;;;;0.63;0.20;;;25.40;57.30;;;;;;4918983;29;20479;-85
2021/07/19 06:55:06;;;;;;;0.30;0.15;;;25.50;57.20;;;;;;4949662;29;20032;-85
2021/07/19 06:57:32;;;;;;;3.10;0.28;;;25.50;57.20;;;;;;4918701;29;20062;-85
2021/07/19 06:59:59;;;;;;;0.52;0.15;;;25.50;57.30;;;;;;4918686;29;20059;-84
2021/07/19 07:02:25;;;;;;;0.47;0.17;;;25.60;57.20;;;;;;4919266;28;20040;-85
2021/07/19 07:04:51;;;;;;;0.30;0.00;;;25.70;57.20;;;;;;4916753;29;20036;-84
2021/07/19 07:07:17;;;;;;;2.05;0.35;;;25.70;57.00;;;;;;4918944;29;20063;-86
2021/07/19 07:09:43;;;;;;;0.77;0.20;;;25.80;56.90;;;;;;4917262;29;20044;-85
2021/07/19 07:12:09;;;;;;;0.63;0.20;;;25.90;56.80;;;;;;4917628;29;20036;-85
2021/07/19 07:14:36;;;;;;;0.10;0.05;;;25.90;56.70;;;;;;4914400;29;20090;-85
2021/07/19 07:17:02;;;;;;;0.47;0.00;;;26.00;56.60;;;;;;4932702;28;20051;-85
2021/07/19 07:19:28;;;;;;;1.30;0.25;;;26.00;56.60;;;;;;4914593;29;20035;-85
2021/07/19 07:21:54;;;;;;;0.13;0.00;;;26.00;56.60;;;;;;4917209;29;20036;-85
2021/07/19 07:24:20;;;;;;;0.55;0.25;;;26.10;56.60;;;;;;4917466;29;20399;-86
2021/07/19 07:26:46;;;;;;;1.27;0.08;;;26.10;56.40;;;;;;4931159;29;20040;-85
2021/07/19 07:29:12;;;;;;;1.08;0.22;;;26.20;56.40;;;;;;4932915;29;20040;-85
2021/07/19 07:31:38;;;;;;;0.10;0.00;;;26.20;56.30;;;;;;4917810;28;20044;-83
2021/07/19 07:34:05;;;;;;;0.30;0.15;;;26.30;56.20;;;;;;4917505;29;20024;-85
2021/07/19 07:36:33;;;;;;;0.25;0.10;;;26.50;56.00;;;;;;4918179;29;20032;-85
2021/07/19 07:39:01;;;;;;;0.60;0.20;;;26.60;55.80;;;;;;4918076;29;20044;-86
2021/07/19 07:41:29;;;;;;;0.35;0.10;;;26.80;55.60;;;;;;4918229;29;20032;-85
2021/07/19 07:43:55;;;;;;;1.75;0.20;;;26.90;55.40;;;;;;4918803;28;20618;-84
2021/07/19 07:46:23;;;;;;;0.10;0.10;;;27.10;55.20;;;;;;4918054;28;20040;-86
2021/07/19 07:48:52;;;;;;;0.77;0.20;;;27.30;55.00;;;;;;4916432;29;20373;-86
2021/07/19 07:51:18;;;;;;;0.10;0.10;;;27.30;54.90;;;;;;4916699;29;20400;-85
2021/07/19 07:53:44;;;;;;;2.17;0.10;;;27.40;54.70;;;;;;4914984;29;20392;-86
2021/07/19 07:56:11;;;;;;;0.00;0.00;;;27.60;54.60;;;;;;4917617;29;20419;-85
2021/07/19 07:58:38;;;;;;;0.40;0.20;;;27.60;54.50;;;;;;4914403;29;20472;-86
2021/07/19 08:01:04;;;;;;;0.22;0.13;;;27.70;54.40;;;;;;4916805;28;20083;-84
2021/07/19 08:03:30;;;;;;;1.15;0.22;;;27.80;54.30;;;;;;4932086;29;20476;-84
2021/07/19 08:05:56;;;;;;;2.60;0.10;;;27.90;54.00;;;;;;4916278;29;20040;-85
2021/07/19 08:08:22;;;;;;;0.20;0.00;;;27.90;53.90;;;;;;4917477;29;20040;-85
2021/07/19 08:10:49;;;;;;;0.05;0.05;;;28.00;53.70;;;;;;4915414;29;20040;-85
2021/07/19 08:13:15;;;;;;;1.65;0.35;;;28.00;53.60;;;;;;4948568;29;20035;-84
2021/07/19 08:15:41;;;;;;;1.83;0.55;;;27.90;53.50;;;;;;4916633;28;20403;-85
2021/07/19 08:18:07;;;;;;;0.47;0.17;;;27.90;53.40;;;;;;4917562;29;20040;-85
2021/07/19 08:20:33;;;;;;;0.65;0.10;;;28.10;53.40;;;;;;4917432;29;20035;-85
2021/07/19 08:22:59;;;;;;;0.43;0.22;;;28.10;53.20;;;;;;4948127;29;20076;-86
2021/07/19 08:25:25;;;;;;;0.00;0.00;;;28.20;53.00;;;;;;4917817;29;20031;-85
2021/07/19 08:27:51;;;;;;;0.15;0.00;;;28.40;52.90;;;;;;4917286;29;20104;-85
2021/07/19 08:30:17;;;;;;;0.20;0.00;;;28.60;52.70;;;;;;4917094;28;20423;-84
2021/07/19 08:32:45;;;;;;;0.15;0.03;;;28.70;52.40;;;;;;4928740;29;20036;-85
2021/07/19 08:35:11;;;;;;;0.45;0.10;;;28.70;52.20;;;;;;4903469;29;20036;-85
2021/07/19 08:37:39;;;;;;;0.32;0.00;;;28.70;52.10;;;;;;4917377;29;20028;-84
2021/07/19 08:40:06;;;;;;;1.30;0.17;;;28.70;52.20;;;;;;4916588;29;20028;-85
2021/07/19 08:42:34;;;;;;;0.08;0.08;;;28.80;52.10;;;;;;4915693;29;20479;-83
2021/07/19 08:45:00;;;;;;;6.53;0.30;;;28.90;51.80;;;;;;4916493;29;20373;-85
2021/07/19 08:47:26;;;;;;;0.43;0.20;;;29.10;51.60;;;;;;4916785;28;20403;-85
2021/07/19 08:49:53;;;;;;;0.28;0.10;;;29.10;51.50;;;;;;4916838;29;20039;-85
2021/07/19 08:52:19;;;;;;;0.43;0.03;;;29.10;51.30;;;;;;4947940;29;20423;-85
2021/07/19 08:54:47;;;;;;;0.08;0.00;;;29.20;51.30;;;;;;4931534;29;20039;-85
2021/07/19 08:57:14;;;;;;;0.30;0.00;;;29.20;51.20;;;;;;4917773;28;20381;-85
2021/07/19 08:59:40;;;;;;;0.30;0.10;;;29.20;51.20;;;;;;4928408;29;20028;-85
2021/07/19 09:02:10;;;;;;;0.35;0.00;;;29.30;51.00;;;;;;4915028;28;20036;-86
2021/07/19 09:04:39;;;;;;;1.77;0.20;;;29.40;50.80;;;;;;4947131;29;20728;-85
2021/07/19 09:07:05;;;;;;;0.05;0.00;;;29.40;50.70;;;;;;4946410;29;20027;-85
2021/07/19 09:09:33;;;;;;;0.17;0.00;;;29.40;50.60;;;;;;4916174;29;20044;-86
2021/07/19 09:11:59;;;;;;;0.45;0.30;;;29.50;50.40;;;;;;4916405;29;20040;-85
2021/07/19 09:14:26;;;;;;;1.45;0.43;;;29.50;50.30;;;;;;4916085;29;20027;-85
2021/07/19 09:16:52;;;;;;;1.23;0.50;;;29.50;50.30;;;;;;4914054;28;20044;-86
2021/07/19 09:19:23;;;;;;;0.82;0.30;;;29.60;50.20;;;;;;4947398;29;20364;-85
2021/07/19 09:21:51;;;;;;;2.50;0.10;;;29.70;50.00;;;;;;4931352;29;20032;-86
2021/07/19 09:24:19;;;;;;;1.08;0.40;;;29.90;49.90;;;;;;4915743;29;20040;-85
2021/07/19 09:26:46;;;;;;;0.03;0.00;;;30.10;49.70;;;;;;4916887;29;20040;-87
2021/07/19 09:29:13;;;;;;;0.10;0.00;;;30.30;49.30;;;;;;4916011;29;20039;-85
2021/07/19 09:31:40;;;;;;;0.93;0.38;;;30.40;49.00;;;;;;4928257;28;20036;-86
2021/07/19 09:34:19;;;;;;;0.10;0.10;;;30.40;49.00;;;;;;4916782;29;20032;-86
2021/07/19 09:37:04;;;;;;;0.10;0.00;;;30.40;48.90;;;;;;4916251;29;20496;-87
2021/07/19 09:39:54;;;;;;;0.00;0.00;;;30.40;48.70;;;;;;4916195;29;20039;-85
2021/07/19 09:42:23;;;;;;;0.20;0.20;;;30.50;48.70;;;;;;4914966;29;20059;-86
2021/07/19 09:44:54;;;;;;;0.73;0.10;;;30.50;48.60;;;;;;4915801;29;20029;-85
2021/07/19 09:47:30;;;;;;;0.50;0.00;;;30.70;48.30;;;;;;4914318;28;20032;-86
2021/07/19 09:49:56;;;;;;;0.05;0.00;;;30.70;47.90;;;;;;4913950;29;20058;-86
2021/07/19 09:52:22;;;;;;;1.05;0.10;;;30.70;48.10;;;;;;4946830;29;20048;-85
2021/07/19 09:54:49;;;;;;;0.68;0.43;;;30.70;48.10;;;;;;4930364;29;20044;-86
2021/07/19 09:57:15;;;;;;;0.38;0.25;;;30.70;47.90;;;;;;4915584;29;20039;-85
2021/07/19 09:59:53;;;;;;;0.65;0.20;;;30.80;47.60;;;;;;4915935;29;20039;-85
2021/07/19 10:02:39;;;;;;;0.15;0.00;;;30.90;47.60;;;;;;4914348;28;20043;-86
2021/07/19 10:05:07;;;;;;;0.30;0.10;;;30.90;47.40;;;;;;4914585;29;20024;-83
2021/07/19 10:07:33;;;;;;;2.03;0.50;;;31.00;47.30;;;;;;4912225;29;20063;-86
2021/07/19 10:10:00;;;;;;;0.08;0.05;;;31.10;47.00;;;;;;4915706;29;20036;-86
2021/07/19 10:12:26;;;;;;;0.10;0.08;;;31.10;46.90;;;;;;4914224;29;20487;-86
2021/07/19 10:14:52;;;;;;;0.73;0.17;;;31.10;46.80;;;;;;4914769;29;20486;-86
2021/07/19 10:17:19;;;;;;;0.60;0.40;;;31.10;46.80;;;;;;4929645;28;20395;-86
2021/07/19 10:19:45;;;;;;;0.38;0.10;;;31.10;46.60;;;;;;4929579;29;20495;-84
2021/07/19 10:22:11;;;;;;;0.00;0.00;;;31.20;46.50;;;;;;4950759;29;20032;-85
2021/07/19 10:24:44;;;;;;;0.82;0.35;;;31.30;46.20;;;;;;4919571;29;20032;-85
2021/07/19 10:27:21;;;;;;;1.00;0.10;;;31.30;46.00;;;;;;4917927;29;20043;-87
2021/07/19 10:29:48;;;;;;;1.55;0.20;;;31.30;45.80;;;;;;4916646;29;20035;-86
2021/07/19 10:32:21;;;;;;;0.17;0.00;;;31.40;45.70;;;;;;4918186;28;20040;-87
2021/07/19 10:34:52;;;;;;;0.93;0.20;;;31.50;45.60;;;;;;4916984;29;20044;-87
2021/07/19 10:37:53;;;;;;;1.17;0.20;;;31.70;45.50;;;;;;4949253;29;20055;-86
2021/07/19 10:40:28;;;;;;;0.52;0.30;;;31.70;45.40;;;;;;4918319;29;20044;-86
2021/07/19 10:43:06;;;;;;;0.55;0.35;;;31.90;45.90;;;;;;4917682;29;20028;-86
2021/07/19 10:45:56;;;;;;;0.38;0.28;;;31.90;44.90;;;;;;4917359;28;20041;-86
2021/07/19 10:48:23;;;;;;;0.70;0.22;;;31.90;44.80;;;;;;4928763;29;20040;-86
2021/07/19 10:50:50;;;;;;;0.30;0.00;;;31.90;44.80;;;;;;4910080;29;20036;-85
2021/07/19 10:53:20;;;;;;;0.82;0.03;;;32.00;44.70;;;;;;4933932;29;20055;-86
2021/07/19 10:55:59;;;;;;;;;;;32.10;45.20;;;;;;4919258;29;20024;-85
2021/07/19 10:58:39;;;;;;;0.08;0.00;;;32.20;44.10;;;;;;4949734;29;19907;-86
2021/07/19 11:01:05;;;;;;;0.93;0.30;;;32.10;44.00;;;;;;4948405;28;20036;-86
2021/07/19 11:03:39;;;;;;;0.52;0.25;;;32.20;43.90;;;;;;4918525;29;20043;-86
2021/07/19 11:06:05;;;;;;;0.50;0.32;;;32.30;43.60;;;;;;4919653;28;20051;-87
2021/07/19 11:08:31;;;;;;;0.63;0.20;;;32.30;43.40;;;;;;4930157;29;20040;-86
2021/07/19 11:10:58;;;;;;;0.73;0.10;;;32.30;43.40;;;;;;4948517;29;20487;-85
2021/07/19 11:13:24;;;;;;;0.80;0.43;;;32.30;43.20;;;;;;4919619;29;20044;-86
2021/07/19 11:15:51;;;;;;;0.43;0.20;;;32.30;42.90;;;;;;4918070;28;20035;-83
2021/07/19 11:18:29;;;;;;;0.30;0.20;;;32.30;42.90;;;;;;4918568;29;20044;-85
2021/07/19 11:20:57;;;;;;;0.00;0.00;;;32.40;42.80;;;;;;4949180;29;20503;-85
2021/07/19 11:23:31;;;;;;;0.15;0.10;;;32.40;42.60;;;;;;4918807;29;20043;-86
2021/07/19 11:25:59;;;;;;;0.57;0.17;;;32.50;42.40;;;;;;4917234;29;20020;-87
2021/07/19 11:28:27;;;;;;;0.00;0.00;;;32.60;42.40;;;;;;4950096;28;20487;-86
2021/07/19 11:31:25;;;;;;;0.75;0.25;;;32.60;42.20;;;;;;4917134;28;20411;-85
2021/07/19 11:34:00;;;;;;;0.73;0.10;;;32.70;42.00;;;;;;4924904;28;20055;-86
2021/07/19 11:36:30;;;;;;;0.60;0.28;;;32.60;41.70;;;;;;4918239;29;20392;-85
2021/07/19 11:38:58;;;;;;;0.60;0.20;;;32.60;41.70;;;;;;4917861;29;20028;-85
2021/07/19 11:41:26;;;;;;;0.13;0.00;;;32.60;41.60;;;;;;4917153;29;20024;-86
2021/07/19 11:43:57;;;;;;;0.40;0.25;;;32.60;41.60;;;;;;4916559;29;24647;-86
2021/07/19 11:46:33;;;;;;;0.05;0.00;;;32.70;41.60;;;;;;4918130;28;20043;-86
2021/07/19 11:49:05;;;;;;;0.35;0.08;;;32.80;41.50;;;;;;4918104;29;20133;-86
2021/07/19 11:51:35;;;;;;;0.10;0.00;;;32.90;41.30;;;;;;4917311;29;20056;-86
2021/07/19 11:54:02;;;;;;;0.68;0.40;;;33.00;41.30;;;;;;4917911;29;20365;-86
2021/07/19 11:56:28;;;;;;;0.68;0.10;;;33.10;41.20;;;;;;4918007;29;20043;-88
2021/07/19 11:58:57;;;;;;;0.17;0.00;;;33.00;41.10;;;;;;4932771;29;20379;-85
2021/07/19 12:01:33;;;;;;;0.85;0.38;;;33.00;41.30;;;;;;4918479;28;20392;-86
2021/07/19 12:04:01;;;;;;;0.28;0.08;;;33.10;41.10;;;;;;4932646;29;20041;-85
2021/07/19 12:06:27;;;;;;;1.17;0.57;;;33.10;41.10;;;;;;4916642;29;20036;-85
2021/07/19 12:09:05;;;;;;;0.15;0.00;;;33.30;40.90;;;;;;4915355;29;20079;-86
2021/07/19 12:11:31;;;;;;;0.10;0.00;;;33.40;40.60;;;;;;4916651;29;20036;-85
2021/07/19 12:14:03;;;;;;;0.22;0.10;;;33.30;40.50;;;;;;4932530;29;20028;-85
2021/07/19 12:16:37;;;;;;;0.38;0.10;;;33.40;40.50;;;;;;4917802;28;20554;-85
2021/07/19 12:19:05;;;;;;;1.33;0.17;;;33.40;40.20;;;;;;4917704;29;20388;-86
2021/07/19 12:21:43;;;;;;;0.82;0.15;;;33.30;40.30;;;;;;4917699;29;20479;-85
2021/07/19 12:24:09;;;;;;;0.28;0.00;;;33.30;40.30;;;;;;4917930;28;20048;-86
2021/07/19 12:26:56;;;;;;;0.13;0.00;;;33.40;40.10;;;;;;4947917;29;20040;-85
2021/07/19 12:29:37;;;;;;;3.15;0.50;;;33.40;40.00;;;;;;4917392;29;20044;-85
2021/07/19 12:32:04;;;;;;;0.00;0.00;;;33.30;39.80;;;;;;4916979;28;20047;-84
2021/07/19 12:34:31;;;;;;;0.10;0.00;;;33.20;39.60;;;;;;4917826;29;20035;-85
2021/07/19 12:36:59;;;;;;;1.58;0.30;;;33.20;39.30;;;;;;4917185;29;20032;-84
2021/07/19 12:39:27;;;;;;;0.73;0.28;;;33.10;39.20;;;;;;4931911;29;20032;-85
2021/07/19 12:41:54;;;;;;;1.55;0.22;;;33.20;39.30;;;;;;4913502;29;20044;-85
2021/07/19 12:44:24;;;;;;;0.50;0.20;;;33.20;39.10;;;;;;4934425;29;20047;-85
2021/07/19 12:46:52;;;;;;;0.45;0.13;;;33.30;39.20;;;;;;4914914;28;20036;-85
2021/07/19 12:49:35;;;;;;;1.30;0.10;;;33.30;39.10;;;;;;4948106;29;20035;-87
2021/07/19 12:52:11;;;;;;;0.65;0.10;;;33.50;39.10;;;;;;4947426;29;20395;-85
2021/07/19 12:54:38;;;;;;;0.73;0.15;;;33.60;39.00;;;;;;4916793;29;20032;-85